createdAt,value
2017-08-23T00:00:14.210Z,12.69
2017-08-23T00:02:41.938Z,12.73
2017-08-23T00:05:09.713Z,12.38
2017-08-23T00:07:37.520Z,12.47
2017-08-23T00:10:05.506Z,12.38
2017-08-23T00:12:33.405Z,12.37
2017-08-23T00:15:01.336Z,12.46
2017-08-23T00:17:29.279Z,12.36
2017-08-23T00:19:57.243Z,12.44
2017-08-23T00:22:25.066Z,12.43
2017-08-23T00:24:52.851Z,12.37
2017-08-23T00:27:20.588Z,12.42
2017-08-23T00:29:48.294Z,12.36
2017-08-23T00:32:16.148Z,12.15
2017-08-23T00:34:44.022Z,12.16
2017-08-23T00:37:11.900Z,12.29
2017-08-23T00:39:39.854Z,12.17
2017-08-23T00:42:07.780Z,12.17
2017-08-23T00:44:35.669Z,12.05
2017-08-23T00:47:03.619Z,11.99
2017-08-23T00:49:31.505Z,12.17
2017-08-23T00:51:59.457Z,12.05
2017-08-23T00:54:27.406Z,12.08
2017-08-23T00:56:55.365Z,12.16
2017-08-23T00:59:23.083Z,12.06
2017-08-23T01:01:50.833Z,12.02
2017-08-23T01:04:18.651Z,11.96
2017-08-23T01:06:46.542Z,11.88
2017-08-23T01:09:14.402Z,11.82
2017-08-23T01:11:42.338Z,12.01
2017-08-23T01:14:10.123Z,11.68
2017-08-23T01:16:37.858Z,11.75
2017-08-23T01:19:05.585Z,11.69
2017-08-23T01:21:33.502Z,11.76
2017-08-23T01:24:01.468Z,11.67
2017-08-23T01:26:29.424Z,11.69
2017-08-23T01:28:57.334Z,11.68
2017-08-23T01:31:25.263Z,11.65
2017-08-23T01:33:53.019Z,11.55
2017-08-23T01:36:20.806Z,11.58
2017-08-23T01:38:48.848Z,11.67
2017-08-23T01:41:16.761Z,11.52
2017-08-23T01:43:44.568Z,11.50
2017-08-23T01:46:12.499Z,11.45
2017-08-23T01:48:40.463Z,11.38
2017-08-23T01:51:08.167Z,11.45
2017-08-23T01:53:35.940Z,11.45
2017-08-23T01:56:03.699Z,11.48
2017-08-23T01:58:31.492Z,11.44
2017-08-23T02:00:59.308Z,11.49
2017-08-23T02:03:27.260Z,11.39
2017-08-23T02:05:55.000Z,11.27
2017-08-23T02:08:23.268Z,11.35
2017-08-23T02:10:50.951Z,11.42
2017-08-23T02:13:18.724Z,11.36
2017-08-23T02:15:46.467Z,11.40
2017-08-23T02:18:14.351Z,11.30
2017-08-23T02:20:42.187Z,11.42
2017-08-23T02:23:09.970Z,11.23
2017-08-23T02:25:37.929Z,11.23
2017-08-23T02:28:05.681Z,11.16
2017-08-23T02:30:33.429Z,11.07
2017-08-23T02:33:01.133Z,11.24
2017-08-23T02:35:28.881Z,11.32
2017-08-23T02:37:56.650Z,11.20
2017-08-23T02:40:24.493Z,11.20
2017-08-23T02:42:52.486Z,11.09
2017-08-23T02:45:20.444Z,11.14
2017-08-23T02:47:48.407Z,11.01
2017-08-23T02:50:16.178Z,11.17
2017-08-23T02:52:44.022Z,11.07
2017-08-23T02:55:11.857Z,11.08
2017-08-23T02:57:39.818Z,10.96
2017-08-23T03:00:07.608Z,10.91
2017-08-23T03:02:35.497Z,11.04
2017-08-23T03:05:03.418Z,11.02
2017-08-23T03:07:31.295Z,11.02
2017-08-23T03:09:59.089Z,10.97
2017-08-23T03:12:26.854Z,10.87
2017-08-23T03:14:54.538Z,10.95
2017-08-23T03:17:22.288Z,10.82
2017-08-23T03:19:49.961Z,10.81
2017-08-23T03:22:17.630Z,10.87
2017-08-23T03:24:45.390Z,10.70
2017-08-23T03:27:13.068Z,10.78
2017-08-23T03:29:40.837Z,10.72
2017-08-23T03:32:08.544Z,10.64
2017-08-23T03:34:36.412Z,10.61
2017-08-23T03:37:04.393Z,10.60
2017-08-23T03:39:32.140Z,10.55
2017-08-23T03:41:59.858Z,10.50
2017-08-23T03:44:27.597Z,10.39
2017-08-23T03:46:55.494Z,10.48
2017-08-23T03:49:23.271Z,10.45
2017-08-23T03:51:50.992Z,10.60
2017-08-23T03:54:18.706Z,10.43
2017-08-23T03:56:46.428Z,10.45
2017-08-23T03:59:14.103Z,10.44
2017-08-23T04:01:41.847Z,10.37
2017-08-23T04:04:09.582Z,10.45
2017-08-23T04:06:37.411Z,10.46
2017-08-23T04:09:05.228Z,10.50
2017-08-23T04:11:32.988Z,10.42
2017-08-23T04:14:00.910Z,10.36
2017-08-23T04:16:28.776Z,10.25
2017-08-23T04:18:56.628Z,10.32
2017-08-23T04:21:24.405Z,10.32
2017-08-23T04:23:52.104Z,10.43
2017-08-23T04:26:19.849Z,10.41
2017-08-23T04:28:47.538Z,10.37
2017-08-23T04:31:15.270Z,10.27
2017-08-23T04:33:42.980Z,10.40
2017-08-23T04:36:10.663Z,10.30
2017-08-23T04:38:38.389Z,10.30
2017-08-23T04:41:06.113Z,10.33
2017-08-23T04:43:33.950Z,10.32
2017-08-23T04:46:01.674Z,10.34
2017-08-23T04:48:29.375Z,10.32
2017-08-23T04:50:57.099Z,10.38
2017-08-23T04:53:24.794Z,10.40
2017-08-23T04:55:52.514Z,10.49
2017-08-23T04:58:20.209Z,10.51
2017-08-23T05:00:47.934Z,10.47
2017-08-23T05:03:15.710Z,10.53
2017-08-23T05:05:43.444Z,10.53
2017-08-23T05:08:11.221Z,10.61
2017-08-23T05:10:38.936Z,10.62
2017-08-23T05:13:06.659Z,10.70
2017-08-23T05:15:34.485Z,11.48
2017-08-23T05:18:02.244Z,12.17
2017-08-23T05:20:29.945Z,12.21
2017-08-23T05:22:57.675Z,12.07
2017-08-23T05:25:25.376Z,12.08
2017-08-23T05:27:53.170Z,12.12
2017-08-23T05:30:20.869Z,12.25
2017-08-23T05:32:48.634Z,12.37
2017-08-23T05:35:16.396Z,12.59
2017-08-23T05:37:44.135Z,12.66
2017-08-23T05:40:11.934Z,12.85
2017-08-23T05:42:39.704Z,12.95
2017-08-23T05:45:07.456Z,13.13
2017-08-23T05:47:35.175Z,13.40
2017-08-23T05:50:04.084Z,13.32
2017-08-23T05:52:31.820Z,13.33
2017-08-23T05:54:59.607Z,13.64
2017-08-23T05:57:27.377Z,13.61
2017-08-23T05:59:55.190Z,13.50
2017-08-23T06:02:22.916Z,13.50
2017-08-23T06:04:50.719Z,13.83
2017-08-23T06:07:18.482Z,13.67
2017-08-23T06:09:46.247Z,13.44
2017-08-23T06:12:13.999Z,13.95
2017-08-23T06:14:41.759Z,14.23
2017-08-23T06:17:09.632Z,14.11
2017-08-23T06:19:37.356Z,14.29
2017-08-23T06:22:05.093Z,14.57
2017-08-23T06:24:33.657Z,14.65
2017-08-23T06:27:01.406Z,14.08
2017-08-23T06:29:29.177Z,14.38
2017-08-23T06:31:56.903Z,14.66
2017-08-23T06:34:24.602Z,14.46
2017-08-23T06:36:52.413Z,14.81
2017-08-23T06:39:20.172Z,15.29
2017-08-23T06:41:47.926Z,15.68
2017-08-23T06:44:15.652Z,15.84
2017-08-23T06:46:43.401Z,15.89
2017-08-23T06:49:11.151Z,15.78
2017-08-23T06:51:38.875Z,15.56
2017-08-23T06:54:06.681Z,15.81
2017-08-23T06:56:34.399Z,16.13
2017-08-23T06:59:02.160Z,16.39
2017-08-23T07:01:29.870Z,16.44
2017-08-23T07:03:57.650Z,16.66
2017-08-23T07:06:25.343Z,16.89
2017-08-23T07:08:53.063Z,17.31
2017-08-23T07:11:20.821Z,17.26
2017-08-23T07:13:48.576Z,17.51
2017-08-23T07:16:16.341Z,17.56
2017-08-23T07:18:44.053Z,17.74
2017-08-23T07:21:11.826Z,17.73
2017-08-23T07:23:39.629Z,18.06
2017-08-23T07:26:07.423Z,18.13
2017-08-23T07:28:35.187Z,17.16
2017-08-23T07:31:02.985Z,16.96
2017-08-23T07:33:30.765Z,17.02
2017-08-23T07:35:58.489Z,16.55
2017-08-23T07:38:26.223Z,16.80
2017-08-23T07:40:53.991Z,17.06
2017-08-23T07:43:21.716Z,17.00
2017-08-23T07:45:49.425Z,16.37
2017-08-23T07:48:17.182Z,16.55
2017-08-23T07:50:44.955Z,16.51
2017-08-23T07:53:12.733Z,16.81
2017-08-23T07:55:40.658Z,16.84
2017-08-23T07:58:08.387Z,17.08
2017-08-23T08:00:36.098Z,17.32
2017-08-23T08:03:03.877Z,17.36
2017-08-23T08:05:31.623Z,17.10
2017-08-23T08:07:59.371Z,17.62
2017-08-23T08:10:27.166Z,17.67
2017-08-23T08:12:54.972Z,17.82
2017-08-23T08:15:22.697Z,17.78
2017-08-23T08:17:50.512Z,17.80
2017-08-23T08:20:18.443Z,18.03
2017-08-23T08:22:46.202Z,18.22
2017-08-23T08:25:13.970Z,18.21
2017-08-23T08:27:42.347Z,18.72
2017-08-23T08:30:10.354Z,18.92
2017-08-23T08:32:38.086Z,19.49
2017-08-23T08:35:05.914Z,19.79
2017-08-23T08:37:33.680Z,19.87
2017-08-23T08:40:01.449Z,20.12
2017-08-23T08:42:29.187Z,20.45
2017-08-23T08:44:56.886Z,20.52
2017-08-23T08:47:24.693Z,20.36
2017-08-23T08:49:52.481Z,20.29
2017-08-23T08:52:20.197Z,20.61
2017-08-23T08:54:47.985Z,20.64
2017-08-23T08:57:15.730Z,20.95
2017-08-23T08:59:43.463Z,20.04
2017-08-23T09:02:11.245Z,20.35
2017-08-23T09:04:39.094Z,20.24
2017-08-23T09:07:06.786Z,19.66
2017-08-23T09:09:34.583Z,19.89
2017-08-23T09:12:03.184Z,20.08
2017-08-23T09:14:31.351Z,19.51
2017-08-23T09:16:59.080Z,19.66
2017-08-23T09:19:26.845Z,19.44
2017-08-23T09:21:54.590Z,19.59
2017-08-23T09:24:22.497Z,19.63
2017-08-23T09:26:50.295Z,19.63
2017-08-23T09:29:18.073Z,19.69
2017-08-23T09:31:46.867Z,19.51
2017-08-23T09:34:14.576Z,19.54
2017-08-23T09:36:42.329Z,19.83
2017-08-23T09:39:10.026Z,19.98
2017-08-23T09:41:37.734Z,19.88
2017-08-23T09:44:06.612Z,20.05
2017-08-23T09:46:34.316Z,20.06
2017-08-23T09:49:02.018Z,19.74
2017-08-23T09:51:29.778Z,20.10
2017-08-23T09:53:57.546Z,20.15
2017-08-23T09:56:25.273Z,20.43
2017-08-23T09:58:53.054Z,20.12
2017-08-23T10:01:20.755Z,20.38
2017-08-23T10:03:48.535Z,20.34
2017-08-23T10:06:16.264Z,20.37
2017-08-23T10:08:44.008Z,20.44
2017-08-23T10:11:11.783Z,20.18
2017-08-23T10:13:39.550Z,20.26
2017-08-23T10:16:07.349Z,20.37
2017-08-23T10:18:35.210Z,20.78
2017-08-23T10:21:02.985Z,21.03
2017-08-23T10:23:30.755Z,20.82
2017-08-23T10:25:58.466Z,21.05
2017-08-23T10:28:26.243Z,21.27
2017-08-23T10:30:55.138Z,21.40
2017-08-23T10:33:23.636Z,21.69
2017-08-23T10:35:51.383Z,21.15
2017-08-23T10:38:20.052Z,21.84
2017-08-23T10:40:47.811Z,21.45
2017-08-23T10:43:16.329Z,22.30
2017-08-23T10:45:45.168Z,22.29
2017-08-23T10:48:12.886Z,22.60
2017-08-23T10:50:40.687Z,22.66
2017-08-23T10:53:08.478Z,22.43
2017-08-23T10:55:36.999Z,22.45
2017-08-23T10:58:04.793Z,23.06
2017-08-23T11:00:32.513Z,22.90
2017-08-23T11:03:00.339Z,23.30
2017-08-23T11:05:28.058Z,23.40
2017-08-23T11:07:55.764Z,22.92
2017-08-23T11:10:23.539Z,23.09
2017-08-23T11:12:51.294Z,23.35
2017-08-23T11:15:18.995Z,23.08
2017-08-23T11:17:46.755Z,23.37
2017-08-23T11:20:14.488Z,23.10
2017-08-23T11:22:42.207Z,23.20
2017-08-23T11:25:09.960Z,22.87
2017-08-23T11:27:37.717Z,23.61
2017-08-23T11:30:06.535Z,23.65
2017-08-23T11:32:34.404Z,23.52
2017-08-23T11:35:02.211Z,24.02
2017-08-23T11:37:29.936Z,23.91
2017-08-23T11:39:57.752Z,23.84
2017-08-23T11:42:25.750Z,23.90
2017-08-23T11:44:53.466Z,23.80
2017-08-23T11:47:21.233Z,23.47
2017-08-23T11:49:48.989Z,23.58
2017-08-23T11:52:16.731Z,23.61
2017-08-23T11:54:44.435Z,23.71
2017-08-23T11:57:12.204Z,23.71
2017-08-23T11:59:39.982Z,23.84
2017-08-23T12:02:07.680Z,23.43
2017-08-23T12:04:35.440Z,23.90
2017-08-23T12:07:03.244Z,24.04
2017-08-23T12:09:31.093Z,24.17
2017-08-23T12:11:58.869Z,24.43
2017-08-23T12:14:26.643Z,24.29
2017-08-23T12:16:54.780Z,24.16
2017-08-23T12:19:22.567Z,24.77
2017-08-23T12:21:50.325Z,24.14
2017-08-23T12:24:18.086Z,24.30
2017-08-23T12:26:45.806Z,23.93
2017-08-23T12:29:13.594Z,23.57
2017-08-23T12:31:41.311Z,23.72
2017-08-23T12:34:09.082Z,24.26
2017-08-23T12:36:36.782Z,24.30
2017-08-23T12:39:04.578Z,23.96
2017-08-23T12:41:32.403Z,24.32
2017-08-23T12:44:00.236Z,24.73
2017-08-23T12:46:28.017Z,24.89
2017-08-23T12:48:55.795Z,25.37
2017-08-23T12:51:23.541Z,25.30
2017-08-23T12:53:51.345Z,25.44
2017-08-23T12:56:19.145Z,25.64
2017-08-23T12:58:46.842Z,25.85
2017-08-23T13:01:14.552Z,25.79
2017-08-23T13:03:42.306Z,25.14
2017-08-23T13:06:10.013Z,25.19
2017-08-23T13:08:37.784Z,25.27
2017-08-23T13:11:05.495Z,25.34
2017-08-23T13:13:33.201Z,25.64
2017-08-23T13:16:01.029Z,25.57
2017-08-23T13:18:29.066Z,25.51
2017-08-23T13:20:56.810Z,25.28
2017-08-23T13:23:24.541Z,25.40
2017-08-23T13:25:52.326Z,25.48
2017-08-23T13:28:20.053Z,25.36
2017-08-23T13:30:47.812Z,25.39
2017-08-23T13:33:15.564Z,25.60
2017-08-23T13:35:43.316Z,25.42
2017-08-23T13:38:11.134Z,25.72
2017-08-23T13:40:38.885Z,25.70
2017-08-23T13:43:07.375Z,25.40
2017-08-23T13:45:35.158Z,25.22
2017-08-23T13:48:02.936Z,25.71
2017-08-23T13:50:30.720Z,25.56
2017-08-23T13:52:58.500Z,25.41
2017-08-23T13:55:26.232Z,25.78
2017-08-23T13:57:54.125Z,25.79
2017-08-23T14:00:21.890Z,25.78
2017-08-23T14:02:49.610Z,25.66
2017-08-23T14:05:17.464Z,25.63
2017-08-23T14:07:45.277Z,25.50
2017-08-23T14:10:12.989Z,25.07
2017-08-23T14:12:41.434Z,25.12
2017-08-23T14:15:09.575Z,24.83
2017-08-23T14:17:38.154Z,25.24
2017-08-23T14:20:07.422Z,24.93
2017-08-23T14:22:36.149Z,24.89
2017-08-23T14:25:04.977Z,25.02
2017-08-23T14:27:33.856Z,24.77
2017-08-23T14:30:03.605Z,24.69
2017-08-23T14:32:31.594Z,24.90
2017-08-23T14:35:00.699Z,25.06
2017-08-23T14:37:29.156Z,25.39
2017-08-23T14:39:56.912Z,25.42
2017-08-23T14:42:24.711Z,25.40
2017-08-23T14:44:52.739Z,25.62
2017-08-23T14:47:20.465Z,25.14
2017-08-23T14:49:48.203Z,24.68
2017-08-23T14:52:16.276Z,24.71
2017-08-23T14:54:44.878Z,24.57
2017-08-23T14:57:12.604Z,24.85
2017-08-23T14:59:40.343Z,25.01
2017-08-23T15:02:08.489Z,24.90
2017-08-23T15:04:36.236Z,24.76
2017-08-23T15:07:04.161Z,24.59
2017-08-23T15:09:32.212Z,24.89
2017-08-23T15:11:59.993Z,24.72
2017-08-23T15:14:27.718Z,24.58
2017-08-23T15:16:55.467Z,24.79
2017-08-23T15:19:23.234Z,25.07
2017-08-23T15:21:51.005Z,24.91
2017-08-23T15:24:18.865Z,25.08
2017-08-23T15:26:47.872Z,24.85
2017-08-23T15:29:15.728Z,24.73
2017-08-23T15:31:43.530Z,24.69
2017-08-23T15:34:11.239Z,24.75
2017-08-23T15:36:39.076Z,24.57
2017-08-23T15:39:06.807Z,24.16
2017-08-23T15:41:34.785Z,24.10
2017-08-23T15:44:02.589Z,24.12
2017-08-23T15:46:30.297Z,23.84
2017-08-23T15:48:58.074Z,23.57
2017-08-23T15:51:25.854Z,23.37
2017-08-23T15:53:53.607Z,23.33
2017-08-23T15:56:21.350Z,23.01
2017-08-23T15:58:49.087Z,22.99
2017-08-23T16:01:16.930Z,22.69
2017-08-23T16:03:44.833Z,22.65
2017-08-23T16:06:12.599Z,22.40
2017-08-23T16:08:41.626Z,22.23
2017-08-23T16:11:09.709Z,22.04
2017-08-23T16:13:37.497Z,21.90
2017-08-23T16:16:05.204Z,21.88
2017-08-23T16:18:32.930Z,21.71
2017-08-23T16:21:00.688Z,21.51
2017-08-23T16:23:28.466Z,21.66
2017-08-23T16:25:56.279Z,21.50
2017-08-23T16:28:24.673Z,21.49
2017-08-23T16:30:52.438Z,21.30
2017-08-23T16:33:20.242Z,21.11
2017-08-23T16:35:48.001Z,21.01
2017-08-23T16:38:15.798Z,20.96
2017-08-23T16:40:43.505Z,20.87
2017-08-23T16:43:12.369Z,20.88
2017-08-23T16:45:40.121Z,20.83
2017-08-23T16:48:07.871Z,20.91
2017-08-23T16:50:35.658Z,20.76
2017-08-23T16:53:03.393Z,20.69
2017-08-23T16:55:31.211Z,20.55
2017-08-23T16:57:59.185Z,20.36
2017-08-23T17:00:27.083Z,20.35
2017-08-23T17:02:54.825Z,20.53
2017-08-23T17:05:22.582Z,20.35
2017-08-23T17:07:50.281Z,20.21
2017-08-23T17:10:18.017Z,20.17
2017-08-23T17:12:45.784Z,19.99
2017-08-23T17:15:13.563Z,19.99
2017-08-23T17:17:41.377Z,19.96
2017-08-23T17:20:09.201Z,19.77
2017-08-23T17:22:36.973Z,19.72
2017-08-23T17:25:04.874Z,19.71
2017-08-23T17:27:32.740Z,19.71
2017-08-23T17:30:00.652Z,19.66
2017-08-23T17:32:28.387Z,19.57
2017-08-23T17:34:56.189Z,19.46
2017-08-23T17:37:24.133Z,19.35
2017-08-23T17:39:51.926Z,19.33
2017-08-23T17:42:19.793Z,19.24
2017-08-23T17:44:47.544Z,19.08
2017-08-23T17:47:16.030Z,19.22
2017-08-23T17:49:43.877Z,19.02
2017-08-23T17:52:11.711Z,19.03
2017-08-23T17:54:39.477Z,18.93
2017-08-23T17:57:07.248Z,18.83
2017-08-23T17:59:35.060Z,18.70
2017-08-23T18:02:02.980Z,18.57
2017-08-23T18:04:30.855Z,18.55
2017-08-23T18:06:58.654Z,18.54
2017-08-23T18:09:26.475Z,18.55
2017-08-23T18:11:54.528Z,18.53
2017-08-23T18:14:22.381Z,18.52
2017-08-23T18:16:50.201Z,18.26
2017-08-23T18:19:18.034Z,18.23
2017-08-23T18:21:46.760Z,18.12
2017-08-23T18:24:14.505Z,18.07
2017-08-23T18:26:42.405Z,18.15
2017-08-23T18:29:10.222Z,18.11
2017-08-23T18:31:38.076Z,18.13
2017-08-23T18:34:06.104Z,18.03
2017-08-23T18:36:33.977Z,18.03
2017-08-23T18:39:01.791Z,17.68
2017-08-23T18:41:29.602Z,17.67
2017-08-23T18:43:57.406Z,17.64
2017-08-23T18:46:25.207Z,17.61
2017-08-23T18:48:52.977Z,17.68
2017-08-23T18:51:20.723Z,17.66
2017-08-23T18:53:48.478Z,17.55
2017-08-23T18:56:16.277Z,17.56
2017-08-23T18:58:44.101Z,17.45
2017-08-23T19:01:11.854Z,17.40
2017-08-23T19:03:39.641Z,17.42
2017-08-23T19:06:07.575Z,17.35
2017-08-23T19:08:35.378Z,17.28
2017-08-23T19:11:03.090Z,17.24
2017-08-23T19:13:30.850Z,17.19
2017-08-23T19:15:58.694Z,17.14
2017-08-23T19:18:26.491Z,17.09
2017-08-23T19:20:54.264Z,17.17
2017-08-23T19:23:22.075Z,17.06
2017-08-23T19:25:49.922Z,17.04
2017-08-23T19:28:17.651Z,17.01
2017-08-23T19:30:45.578Z,17.14
2017-08-23T19:33:13.327Z,17.06
2017-08-23T19:35:41.137Z,16.84
2017-08-23T19:38:09.185Z,16.72
2017-08-23T20:16:08.394Z,15.97
2017-08-23T20:18:36.164Z,15.88
2017-08-23T20:21:04.135Z,15.94
2017-08-23T20:23:31.989Z,16.08
2017-08-23T20:26:02.006Z,16.01
2017-08-23T20:28:31.450Z,15.97
2017-08-23T20:30:59.252Z,15.91
2017-08-23T20:33:27.072Z,15.72
2017-08-23T20:35:58.531Z,15.70
2017-08-23T20:38:27.546Z,15.75
2017-08-23T20:40:55.327Z,15.61
2017-08-23T20:43:23.162Z,15.57
2017-08-23T20:45:51.023Z,15.76
2017-08-23T20:48:18.836Z,15.68
2017-08-23T20:50:46.749Z,15.44
2017-08-23T20:53:14.562Z,15.33
2017-08-23T20:55:42.318Z,15.39
2017-08-23T20:58:10.133Z,15.46
2017-08-23T21:00:38.275Z,15.33
2017-08-23T21:03:06.791Z,15.27
2017-08-23T21:05:34.546Z,15.24
2017-08-23T21:08:03.617Z,15.21
2017-08-23T21:10:31.410Z,15.38
2017-08-23T21:13:00.536Z,15.19
2017-08-23T21:15:28.248Z,15.15
2017-08-23T21:17:57.971Z,15.09
2017-08-23T21:20:26.517Z,15.11
2017-08-23T21:22:55.222Z,15.06
2017-08-23T21:25:23.082Z,14.84
2017-08-23T21:27:50.838Z,14.88
2017-08-23T21:30:19.492Z,14.83
2017-08-23T21:32:47.283Z,14.79
2017-08-23T21:35:15.067Z,14.97
2017-08-23T21:37:43.779Z,14.79
2017-08-23T21:40:11.604Z,14.70
2017-08-23T21:42:39.527Z,14.73
2017-08-23T21:45:07.397Z,14.60
2017-08-23T21:47:35.312Z,14.55
2017-08-23T21:50:03.151Z,14.48
2017-08-23T21:52:30.862Z,14.59
2017-08-23T21:54:58.595Z,14.59
2017-08-23T21:57:26.381Z,14.47
2017-08-23T21:59:54.176Z,14.55
2017-08-23T22:02:22.023Z,14.44
2017-08-23T22:04:49.864Z,14.31
2017-08-23T22:07:17.732Z,14.38
2017-08-23T22:09:45.822Z,14.44
2017-08-23T22:12:14.472Z,14.33
2017-08-23T22:14:42.188Z,14.30
2017-08-23T22:17:10.055Z,14.40
2017-08-23T22:19:37.795Z,14.22
2017-08-23T22:22:05.614Z,14.30
2017-08-23T22:24:33.423Z,14.15
2017-08-23T22:27:01.306Z,14.24
2017-08-23T22:29:29.050Z,14.28
2017-08-23T22:31:56.839Z,14.18
2017-08-23T22:34:24.623Z,14.06
2017-08-23T22:36:52.339Z,14.12
2017-08-23T22:39:20.243Z,14.18
2017-08-23T22:41:48.040Z,14.04
2017-08-23T22:44:15.831Z,13.95
2017-08-23T22:46:43.557Z,13.94
2017-08-23T22:49:11.373Z,14.09
2017-08-23T22:51:39.165Z,13.88
2017-08-23T22:54:06.891Z,13.93
2017-08-23T22:56:34.668Z,13.80
2017-08-23T22:59:02.504Z,13.72
2017-08-23T23:01:30.248Z,13.75
2017-08-23T23:03:57.995Z,13.81
2017-08-23T23:06:25.810Z,13.71
2017-08-23T23:08:53.532Z,13.78
2017-08-23T23:11:22.127Z,13.66
2017-08-23T23:13:49.861Z,13.72
2017-08-23T23:16:17.712Z,13.58
2017-08-23T23:18:45.525Z,13.59
2017-08-23T23:21:13.364Z,13.74
2017-08-23T23:23:41.116Z,13.66
2017-08-23T23:26:08.864Z,13.57
2017-08-23T23:28:36.643Z,13.53
2017-08-23T23:31:17.459Z,13.48
2017-08-23T23:33:45.487Z,13.57
2017-08-23T23:36:13.216Z,13.57
2017-08-23T23:38:40.995Z,13.38
2017-08-23T23:41:09.725Z,13.36
2017-08-23T23:43:37.465Z,13.46
2017-08-23T23:46:06.459Z,13.39
2017-08-23T23:48:34.889Z,13.36
2017-08-23T23:51:02.645Z,13.33
2017-08-23T23:53:30.458Z,13.32
2017-08-23T23:56:00.018Z,13.31
2017-08-23T23:58:28.871Z,13.49
